Time;durP1;ratioP1;P1;durP2;ratioP2;P2;SDS_P1;SDS_P2;PMS_P1;PMS_P2;Temp;Humidity;BMP_temperature;BMP_pressure;BME280_temperature;BME280_humidity;BME280_pressure;Samples;Min_cycle;Max_cycle;Signal;HPM_P1;HPM_P2
2023/07/26 00:00:24;;;;;;;2.72;1.20;;;;;;;29.84;48.91;97693.72;2091163;28;20255;-48
2023/07/26 00:01:24;;;;;;;1.70;1.20;;;;;;;29.81;48.83;97695.13;2086475;28;20507;-50
2023/07/26 00:02:26;;;;;;;3.40;1.60;;;;;;;29.81;48.50;97697.84;2084906;28;20431;-50
2023/07/26 00:03:27;;;;;;;3.67;1.52;;;;;;;29.84;48.82;97691.78;2090557;28;20045;-50
2023/07/26 00:04:29;;;;;;;3.85;1.45;;;;;;;29.85;48.90;97700.78;2088309;28;20056;-49
2023/07/26 00:05:30;;;;;;;1.33;1.00;;;;;;;29.82;48.84;97696.72;2089685;28;20302;-49
2023/07/26 00:06:32;;;;;;;2.88;1.00;;;;;;;29.81;48.77;97699.75;2088284;28;20060;-51
2023/07/26 00:07:32;;;;;;;2.47;1.38;;;;;;;29.80;48.80;97698.94;2088498;28;20048;-49
2023/07/26 00:08:34;;;;;;;2.40;1.23;;;;;;;29.83;48.92;97703.00;2090016;28;20108;-48
2023/07/26 00:09:36;;;;;;;2.75;1.02;;;;;;;29.81;48.95;97700.59;2090536;28;21206;-51
2023/07/26 00:10:38;;;;;;;2.38;1.10;;;;;;;29.82;48.87;97695.94;2087152;28;20045;-49
2023/07/26 00:11:39;;;;;;;2.10;1.00;;;;;;;29.83;48.51;97694.81;2089851;28;20531;-48
2023/07/26 00:12:41;;;;;;;1.40;0.90;;;;;;;29.80;48.80;97692.66;2091431;28;20059;-50
2023/07/26 00:13:43;;;;;;;2.78;1.13;;;;;;;29.80;48.85;97696.22;2090566;28;20048;-50
2023/07/26 00:14:45;;;;;;;1.70;1.00;;;;;;;29.81;48.87;97686.09;2090155;28;20056;-48
2023/07/26 00:15:46;;;;;;;2.50;1.00;;;;;;;29.80;48.92;97682.53;2086640;28;20071;-51
2023/07/26 00:16:49;;;;;;;3.88;1.40;;;;;;;29.77;48.72;97685.06;2088732;28;20515;-49
2023/07/26 00:17:50;;;;;;;2.70;1.17;;;;;;;29.76;48.80;97686.19;2088775;28;20147;-48
2023/07/26 00:18:52;;;;;;;3.10;1.10;;;;;;;29.74;48.88;97680.22;2087482;28;20063;-49
2023/07/26 00:19:52;;;;;;;2.10;1.70;;;;;;;29.78;48.94;97675.75;2090650;28;20056;-50
2023/07/26 00:20:54;;;;;;;3.20;1.33;;;;;;;29.77;48.74;97671.41;2086780;28;20491;-51
2023/07/26 00:21:55;;;;;;;1.42;0.90;;;;;;;29.78;48.86;97671.13;2088041;28;20053;-48
2023/07/26 00:22:57;;;;;;;1.40;0.77;;;;;;;29.77;48.68;97677.69;2088971;28;20265;-48
2023/07/26 00:23:58;;;;;;;2.95;1.27;;;;;;;29.76;49.09;97672.53;2088682;28;20045;-51
2023/07/26 00:25:02;;;;;;;2.97;1.13;;;;;;;29.78;48.93;97673.03;2087951;28;20079;-50
2023/07/26 00:26:02;;;;;;;1.92;1.10;;;;;;;29.76;48.79;97665.13;2085938;28;20059;-48
2023/07/26 00:27:05;;;;;;;1.88;1.08;;;;;;;29.79;48.79;97671.94;2086834;28;20043;-49
2023/07/26 00:28:06;;;;;;;2.83;1.45;;;;;;;29.77;48.83;97668.69;2088822;28;20414;-49
2023/07/26 00:29:07;;;;;;;2.00;0.80;;;;;;;29.76;48.77;97665.13;2088336;28;20257;-48
2023/07/26 00:30:09;;;;;;;2.35;1.05;;;;;;;29.76;48.59;97662.41;2088480;28;20041;-48
2023/07/26 00:31:11;;;;;;;2.53;1.33;;;;;;;29.75;48.99;97663.50;2090147;28;20055;-49
2023/07/26 00:32:12;;;;;;;2.35;1.30;;;;;;;29.78;48.80;97662.94;2088139;28;20217;-50
2023/07/26 00:33:14;;;;;;;3.38;1.05;;;;;;;29.77;48.90;97655.00;2090734;28;20052;-50
2023/07/26 00:34:14;;;;;;;1.48;0.73;;;;;;;29.79;48.63;97652.81;2086898;28;20049;-49
2023/07/26 00:35:21;;;;;;;1.75;1.13;;;;;;;29.78;48.82;97657.47;2088929;28;20041;-50
2023/07/26 00:36:21;;;;;;;2.40;1.23;;;;;;;29.76;48.70;97650.66;2089212;28;20045;-50
2023/07/26 00:37:23;;;;;;;3.35;1.13;;;;;;;29.76;48.69;97653.41;2088319;28;20079;-50
2023/07/26 00:38:24;;;;;;;1.88;1.20;;;;;;;29.78;48.63;97656.63;2087410;28;20045;-51
2023/07/26 00:39:26;;;;;;;2.80;1.45;;;;;;;29.81;48.43;97653.28;2089354;28;20044;-52
2023/07/26 00:40:28;;;;;;;1.80;0.80;;;;;;;29.82;48.79;97658.47;2088064;28;20503;-52
2023/07/26 00:41:30;;;;;;;4.15;1.20;;;;;;;29.81;48.81;97647.81;2087141;28;20494;-51
2023/07/26 00:42:31;;;;;;;2.88;1.02;;;;;;;29.78;48.86;97646.53;2089180;28;21496;-50
2023/07/26 00:43:32;;;;;;;3.17;1.38;;;;;;;29.78;48.86;97642.97;2089649;28;20057;-48
2023/07/26 00:44:33;;;;;;;2.45;1.08;;;;;;;29.78;48.72;97646.53;2090678;28;20590;-50
2023/07/26 00:45:39;;;;;;;1.65;1.17;;;;;;;29.80;48.87;97638.81;2090668;28;20140;-47
2023/07/26 00:46:40;;;;;;;4.35;1.50;;;;;;;29.80;48.92;97647.00;2092077;28;20053;-49
2023/07/26 00:47:42;;;;;;;3.35;1.30;;;;;;;29.80;48.94;97643.47;2091304;28;20052;-49
2023/07/26 00:48:43;;;;;;;2.60;1.38;;;;;;;29.83;48.72;97640.13;2090182;28;20052;-51
2023/07/26 00:49:45;;;;;;;2.67;1.02;;;;;;;29.81;48.78;97645.09;2090935;28;20164;-48
2023/07/26 00:50:47;;;;;;;2.88;1.15;;;;;;;29.81;48.56;97643.19;2090742;28;20208;-48
2023/07/26 00:51:49;;;;;;;1.60;1.00;;;;;;;29.80;48.91;97632.53;2090222;28;20401;-49
2023/07/26 00:52:50;;;;;;;1.05;0.70;;;;;;;29.80;48.74;97633.34;2090782;28;20040;-48
2023/07/26 00:53:51;;;;;;;1.65;1.55;;;;;;;29.81;48.55;97634.16;2091033;28;20045;-50
2023/07/26 00:54:55;;;;;;;2.10;1.15;;;;;;;29.81;48.60;97636.88;2092214;28;20055;-48
2023/07/26 00:55:59;;;;;;;2.22;1.15;;;;;;;29.80;48.56;97633.34;2092090;28;20054;-49
2023/07/26 00:57:00;;;;;;;2.10;1.67;;;;;;;29.78;48.42;97637.50;2089292;28;20132;-50
2023/07/26 00:58:02;;;;;;;2.00;0.80;;;;;;;29.78;48.59;97638.31;2093886;28;20036;-50
2023/07/26 00:59:03;;;;;;;2.72;1.38;;;;;;;29.80;48.57;97648.94;2092731;28;20044;-51
2023/07/26 01:00:06;;;;;;;2.55;1.00;;;;;;;29.76;48.46;97640.53;2091710;28;20490;-51
2023/07/26 01:01:07;;;;;;;2.47;1.40;;;;;;;29.77;48.69;97638.63;2090752;28;20051;-49
2023/07/26 01:02:09;;;;;;;1.80;0.90;;;;;;;29.82;48.59;97635.78;2091516;28;20051;-52
2023/07/26 01:03:10;;;;;;;3.03;1.30;;;;;;;29.85;48.43;97635.19;2089078;28;20041;-51
2023/07/26 01:04:11;;;;;;;2.17;1.80;;;;;;;29.86;48.49;97631.31;2089880;28;20064;-49
2023/07/26 01:05:13;;;;;;;1.95;1.30;;;;;;;29.87;48.24;97635.69;2090975;28;20181;-49
2023/07/26 01:06:23;;;;;;;4.18;1.00;;;;;;;29.86;48.33;97628.59;2089402;28;20128;-48
2023/07/26 01:07:31;;;;;;;2.00;1.13;;;;;;;29.85;48.55;97624.25;2089544;28;20145;-51
2023/07/26 01:08:41;;;;;;;2.15;1.02;;;;;;;29.86;48.40;97630.53;2088996;28;20048;-49
2023/07/26 01:09:47;;;;;;;3.25;1.10;;;;;;;29.86;48.38;97627.78;2088440;28;21357;-49
2023/07/26 01:10:53;;;;;;;2.97;1.27;;;;;;;29.81;48.42;97624.06;2092821;28;20056;-50
2023/07/26 01:12:02;;;;;;;2.78;1.00;;;;;;;29.81;48.76;97626.78;2088674;28;20331;-48
2023/07/26 01:13:12;;;;;;;2.45;1.10;;;;;;;29.81;48.55;97623.22;2091584;28;20044;-48
2023/07/26 01:14:18;;;;;;;2.05;1.17;;;;;;;29.79;48.44;97623.53;2090281;28;20033;-48
2023/07/26 01:15:23;;;;;;;3.83;1.35;;;;;;;29.79;48.74;97623.53;2090392;28;20052;-50
2023/07/26 01:16:26;;;;;;;1.58;0.90;;;;;;;29.81;48.21;97625.94;2088652;28;20053;-48
2023/07/26 01:17:27;;;;;;;1.50;1.00;;;;;;;29.82;48.27;97631.13;2090313;28;20045;-47
2023/07/26 01:18:29;;;;;;;1.45;0.90;;;;;;;29.82;48.73;97627.59;2090664;28;20479;-50
2023/07/26 01:19:30;;;;;;;1.70;1.10;;;;;;;29.85;48.31;97635.19;2088641;28;20044;-49
2023/07/26 01:20:30;;;;;;;2.47;0.80;;;;;;;29.85;48.33;97635.19;2091283;28;20079;-49
2023/07/26 01:21:34;;;;;;;2.55;1.20;;;;;;;29.87;48.33;97638.44;2091339;28;20052;-50
2023/07/26 01:22:35;;;;;;;3.25;1.50;;;;;;;29.83;48.40;97638.22;2091991;28;20503;-48
2023/07/26 01:23:38;;;;;;;2.47;1.30;;;;;;;29.84;48.34;97645.31;2091501;28;20055;-49
2023/07/26 01:24:39;;;;;;;1.05;0.80;;;;;;;29.87;48.66;97645.84;2092285;28;20215;-50
2023/07/26 01:25:40;;;;;;;2.60;0.98;;;;;;;29.86;48.68;97645.00;2091746;28;20045;-49
2023/07/26 01:26:41;;;;;;;1.77;1.42;;;;;;;29.87;48.22;97654.84;2086605;28;20610;-47
2023/07/26 01:27:42;;;;;;;2.53;1.00;;;;;;;29.84;48.40;97644.50;2092210;28;20060;-48
2023/07/26 01:28:43;;;;;;;2.60;1.58;;;;;;;29.87;48.40;97646.63;2092349;28;20091;-52
2023/07/26 01:29:45;;;;;;;3.30;1.33;;;;;;;29.84;48.47;97648.06;2088881;28;20059;-49
2023/07/26 01:30:48;;;;;;;4.88;1.10;;;;;;;29.87;48.51;97648.56;2088831;28;20059;-48
2023/07/26 01:31:51;;;;;;;2.05;1.75;;;;;;;29.89;48.22;97647.13;2091111;28;20079;-48
2023/07/26 01:32:53;;;;;;;2.88;1.30;;;;;;;29.86;48.29;97646.94;2081488;28;20901;-50
2023/07/26 01:33:56;;;;;;;2.88;1.08;;;;;;;29.87;48.44;97649.38;2086122;28;20209;-49
2023/07/26 01:34:57;;;;;;;2.65;1.15;;;;;;;29.83;48.50;97648.34;2082544;28;20098;-50
2023/07/26 01:36:01;;;;;;;3.80;0.98;;;;;;;29.80;48.58;97648.94;2084986;28;20107;-49
2023/07/26 01:37:04;;;;;;;2.05;1.25;;;;;;;29.82;48.70;97654.94;2084038;28;20045;-50
2023/07/26 01:38:06;;;;;;;2.10;1.05;;;;;;;29.84;48.36;97652.72;2084064;28;20042;-51
2023/07/26 01:39:09;;;;;;;2.42;1.08;;;;;;;29.83;48.21;97651.88;2087383;28;20388;-50
2023/07/26 01:40:11;;;;;;;1.90;1.00;;;;;;;29.83;48.56;97651.06;2087795;28;20037;-50
2023/07/26 01:41:15;;;;;;;0.80;0.63;;;;;;;29.83;48.47;97649.13;2090439;28;20045;-51
2023/07/26 01:42:16;;;;;;;1.80;0.75;;;;;;;29.83;48.33;97654.59;2089982;28;20050;-50
2023/07/26 01:43:18;;;;;;;3.88;1.23;;;;;;;29.86;48.41;97655.13;2093158;28;20353;-47
2023/07/26 01:44:19;;;;;;;1.80;1.23;;;;;;;29.83;48.38;97653.81;2089178;28;20056;-48
2023/07/26 01:45:21;;;;;;;1.85;0.73;;;;;;;29.80;48.36;97655.22;2090077;28;20695;-52
2023/07/26 01:46:22;;;;;;;1.45;1.15;;;;;;;29.78;48.45;97651.16;2092099;28;20101;-48
2023/07/26 01:47:24;;;;;;;2.25;1.20;;;;;;;29.80;48.44;97643.47;2091427;28;20461;-50
2023/07/26 01:48:24;;;;;;;2.42;1.10;;;;;;;29.76;48.69;97645.19;2080911;28;20065;-52
2023/07/26 01:49:26;;;;;;;1.58;0.73;;;;;;;29.77;48.55;97652.28;2081723;28;20155;-49
2023/07/26 01:50:27;;;;;;;1.63;1.00;;;;;;;29.78;48.71;97651.16;2082740;28;20317;-49
2023/07/26 01:51:29;;;;;;;2.05;0.95;;;;;;;29.79;48.60;97650.88;2082486;28;20079;-48
2023/07/26 01:52:32;;;;;;;5.20;1.50;;;;;;;29.76;48.75;97635.06;2085541;28;20056;-51
2023/07/26 01:53:33;;;;;;;1.05;0.90;;;;;;;29.78;48.63;97651.16;2082975;28;20049;-50
2023/07/26 01:54:34;;;;;;;1.58;0.93;;;;;;;29.77;48.45;97655.00;2084569;28;20057;-54
2023/07/26 01:55:36;;;;;;;1.90;1.02;;;;;;;29.80;48.65;97646.22;2089786;28;20066;-54
2023/07/26 01:56:37;;;;;;;1.77;0.60;;;;;;;29.78;48.38;97652.00;2088794;28;20566;-50
2023/07/26 01:57:38;;;;;;;3.80;1.00;;;;;;;29.76;48.58;97646.00;2089904;28;20052;-51
2023/07/26 01:58:40;;;;;;;4.70;1.40;;;;;;;29.77;48.76;97644.06;2091151;28;20056;-49
2023/07/26 01:59:40;;;;;;;2.30;1.27;;;;;;;29.83;48.32;97645.59;2091725;28;20047;-49
2023/07/26 02:00:42;;;;;;;1.75;1.08;;;;;;;29.81;48.59;97637.72;2088537;28;20044;-48
2023/07/26 02:01:43;;;;;;;1.33;1.05;;;;;;;29.82;48.32;97642.06;2089632;28;20051;-52
2023/07/26 02:02:45;;;;;;;2.75;1.20;;;;;;;29.81;48.55;97645.09;2090724;28;20409;-48
2023/07/26 02:03:46;;;;;;;2.33;1.00;;;;;;;29.78;48.54;97642.97;2089364;28;20056;-49
2023/07/26 02:04:48;;;;;;;1.70;0.95;;;;;;;29.76;48.40;97645.19;2091712;28;20082;-52
2023/07/26 02:05:49;;;;;;;1.80;0.93;;;;;;;29.78;48.37;97640.22;2087716;28;20128;-48
2023/07/26 02:06:51;;;;;;;1.95;1.00;;;;;;;29.78;48.15;97640.22;2088591;28;20083;-49
2023/07/26 02:07:54;;;;;;;1.45;0.95;;;;;;;29.82;48.40;97647.53;2090359;28;20059;-48
2023/07/26 02:08:56;;;;;;;1.77;0.77;;;;;;;29.80;48.35;97641.53;2091112;28;20510;-51
2023/07/26 02:09:56;;;;;;;2.40;1.00;;;;;;;29.77;48.64;97647.63;2090341;28;20044;-50
2023/07/26 02:10:58;;;;;;;2.95;1.75;;;;;;;29.77;48.52;97646.81;2091004;28;20058;-49
2023/07/26 02:11:59;;;;;;;1.88;0.98;;;;;;;29.76;48.41;97647.94;2086488;28;20048;-48
2023/07/26 02:13:01;;;;;;;1.55;0.73;;;;;;;29.76;48.53;97653.41;2089758;28;20536;-51
2023/07/26 02:14:02;;;;;;;1.50;1.10;;;;;;;29.75;48.40;97649.84;2086732;28;20056;-51
2023/07/26 02:15:04;;;;;;;1.42;1.15;;;;;;;29.75;48.24;97646.28;2084648;28;20884;-47
2023/07/26 02:16:05;;;;;;;1.15;0.75;;;;;;;29.71;48.36;97654.28;2082424;28;20049;-50
2023/07/26 02:17:07;;;;;;;2.38;1.00;;;;;;;29.73;48.61;97648.53;2088953;28;20049;-50
2023/07/26 02:18:08;;;;;;;3.28;1.33;;;;;;;29.71;48.54;97650.75;2091118;28;20052;-49
2023/07/26 02:19:10;;;;;;;2.35;1.08;;;;;;;29.70;48.53;97649.13;2092125;28;20225;-48
2023/07/26 02:20:11;;;;;;;3.35;1.20;;;;;;;29.73;48.57;97648.53;2091553;28;20033;-48
2023/07/26 02:21:13;;;;;;;1.95;0.98;;;;;;;29.70;48.55;97636.28;2091558;28;20040;-50
2023/07/26 02:22:14;;;;;;;3.30;1.10;;;;;;;29.73;48.49;97643.06;2090726;28;20045;-50
2023/07/26 02:23:17;;;;;;;4.07;1.15;;;;;;;29.73;48.38;97645.81;2089782;28;20296;-49
2023/07/26 02:24:18;;;;;;;1.35;1.25;;;;;;;29.74;48.19;97650.16;2089737;28;20044;-49
2023/07/26 02:25:20;;;;;;;3.78;1.13;;;;;;;29.73;48.55;97643.06;2090301;28;20079;-49
2023/07/26 02:26:20;;;;;;;3.05;1.38;;;;;;;29.75;48.47;97646.28;2089354;28;20053;-49
2023/07/26 02:27:22;;;;;;;1.35;1.05;;;;;;;29.74;48.31;97637.28;2091020;28;20048;-49
2023/07/26 02:28:23;;;;;;;1.38;0.80;;;;;;;29.76;48.52;97634.28;2088647;28;20530;-49
2023/07/26 02:29:25;;;;;;;4.25;0.82;;;;;;;29.76;48.62;97635.06;2090236;28;20051;-49
2023/07/26 02:30:26;;;;;;;3.35;1.15;;;;;;;29.71;48.48;97640.63;2088869;28;20049;-49
2023/07/26 02:31:28;;;;;;;3.47;1.20;;;;;;;29.71;48.49;97639.81;2091230;28;20052;-50
2023/07/26 02:32:29;;;;;;;2.53;0.90;;;;;;;29.74;48.42;97644.69;2089633;28;20068;-51
2023/07/26 02:33:31;;;;;;;2.70;1.10;;;;;;;29.73;48.54;97643.06;2092228;28;20048;-49
2023/07/26 02:34:32;;;;;;;1.30;0.90;;;;;;;29.73;48.46;97640.34;2091317;28;20055;-48
2023/07/26 02:35:34;;;;;;;1.85;1.05;;;;;;;29.72;48.58;97646.91;2091188;28;20075;-49
2023/07/26 02:36:35;;;;;;;1.48;0.73;;;;;;;29.75;48.45;97638.91;2087300;28;20044;-51
2023/07/26 02:37:36;;;;;;;1.60;1.00;;;;;;;29.74;48.41;97644.69;2082248;28;20496;-50
2023/07/26 02:38:39;;;;;;;2.30;0.85;;;;;;;29.73;48.45;97643.06;2081204;28;20419;-48
2023/07/26 02:39:41;;;;;;;1.95;0.98;;;;;;;29.70;48.41;97654.59;2079257;28;20050;-48
2023/07/26 02:40:41;;;;;;;2.22;0.73;;;;;;;29.69;48.45;97651.03;2081002;28;20790;-49
2023/07/26 02:41:43;;;;;;;2.58;0.95;;;;;;;29.66;48.31;97648.91;2081740;28;20372;-52
2023/07/26 02:42:44;;;;;;;3.10;1.10;;;;;;;29.68;48.64;97652.16;2080889;28;20078;-49
2023/07/26 02:43:46;;;;;;;2.05;1.20;;;;;;;29.71;48.54;97656.22;2082940;28;20155;-51
2023/07/26 02:44:47;;;;;;;1.65;1.00;;;;;;;29.69;48.47;97663.91;2081169;28;20048;-47
2023/07/26 02:45:48;;;;;;;2.63;1.08;;;;;;;29.67;48.54;97660.66;2082234;28;20130;-49
2023/07/26 02:46:49;;;;;;;2.65;1.10;;;;;;;29.67;48.51;97656.03;2079571;28;20056;-48
2023/07/26 02:47:51;;;;;;;2.75;0.98;;;;;;;29.67;48.43;97666.13;2081379;28;20538;-48
2023/07/26 02:48:52;;;;;;;2.67;1.23;;;;;;;29.64;48.41;97672.19;2083546;28;20093;-50
2023/07/26 02:49:54;;;;;;;2.00;1.50;;;;;;;29.66;48.64;97661.78;2079610;28;20179;-50
2023/07/26 02:50:55;;;;;;;1.13;0.77;;;;;;;29.64;48.60;97666.72;2081377;28;20041;-49
2023/07/26 02:51:56;;;;;;;2.00;1.10;;;;;;;29.65;48.19;97665.63;2083380;28;20651;-49
2023/07/26 02:52:57;;;;;;;1.35;0.98;;;;;;;29.67;48.54;97661.47;2081178;28;20044;-49
2023/07/26 02:54:00;;;;;;;2.42;1.13;;;;;;;29.67;48.46;97660.66;2083928;28;20055;-49
2023/07/26 02:55:01;;;;;;;3.05;1.35;;;;;;;29.65;48.63;97662.91;2080255;28;20053;-49
2023/07/26 02:56:03;;;;;;;2.70;1.25;;;;;;;29.64;48.54;97662.06;2079654;28;20084;-50
2023/07/26 02:57:05;;;;;;;1.63;1.10;;;;;;;29.65;48.73;97665.63;2081285;28;20052;-49
2023/07/26 02:58:06;;;;;;;1.80;0.80;;;;;;;29.67;48.44;97653.28;2083627;28;20045;-50
2023/07/26 02:59:07;;;;;;;2.50;1.30;;;;;;;29.68;48.16;97662.28;2082619;28;20041;-49
2023/07/26 03:00:11;;;;;;;1.05;0.90;;;;;;;29.64;48.25;97651.13;2080459;28;20163;-49
2023/07/26 03:01:11;;;;;;;2.40;0.80;;;;;;;29.66;48.61;97648.09;2080801;28;20076;-48
2023/07/26 03:02:12;;;;;;;2.10;1.10;;;;;;;29.67;48.44;97657.91;2082168;28;20049;-51
2023/07/26 03:03:14;;;;;;;3.63;1.00;;;;;;;29.66;48.62;97643.44;2079702;28;20048;-51
2023/07/26 03:04:15;;;;;;;1.30;0.85;;;;;;;29.67;48.54;97652.44;2080031;28;20056;-52
2023/07/26 03:05:17;;;;;;;3.22;1.40;;;;;;;29.65;48.40;97641.03;2081813;28;20058;-54
2023/07/26 03:06:18;;;;;;;2.97;1.25;;;;;;;29.64;48.41;97650.31;2081370;28;20052;-49
2023/07/26 03:07:20;;;;;;;1.05;0.82;;;;;;;29.67;48.50;97646.97;2081677;28;20103;-50
2023/07/26 03:08:21;;;;;;;1.20;0.80;;;;;;;29.66;48.29;97637.97;2081830;28;20056;-48
2023/07/26 03:09:24;;;;;;;2.20;1.00;;;;;;;29.67;48.58;97646.97;2081637;28;20458;-51
2023/07/26 03:10:25;;;;;;;1.73;1.17;;;;;;;29.61;48.49;97652.53;2079898;28;20053;-49
2023/07/26 03:11:27;;;;;;;3.67;1.20;;;;;;;29.61;48.85;97647.06;2081632;28;20139;-47
2023/07/26 03:12:28;;;;;;;2.03;1.05;;;;;;;29.61;48.41;97648.97;2082331;28;20075;-48
2023/07/26 03:13:29;;;;;;;3.03;1.40;;;;;;;29.65;48.41;97651.97;2081091;28;20079;-49
2023/07/26 03:14:31;;;;;;;3.30;1.77;;;;;;;29.63;48.29;97660.44;2084508;28;20056;-50
2023/07/26 03:15:32;;;;;;;3.70;1.55;;;;;;;29.64;48.66;97653.84;2089025;28;20053;-48
2023/07/26 03:16:33;;;;;;;4.25;1.38;;;;;;;29.62;48.48;97658.81;2087567;28;20411;-50
2023/07/26 03:17:35;;;;;;;2.53;1.27;;;;;;;29.61;48.65;97662.63;2086636;28;20048;-50
2023/07/26 03:18:36;;;;;;;0.77;0.70;;;;;;;29.64;48.42;97663.97;2093062;28;20060;-51
2023/07/26 03:19:38;;;;;;;2.95;1.23;;;;;;;29.60;48.28;97661.00;2088311;28;20074;-49
2023/07/26 03:20:38;;;;;;;1.77;0.93;;;;;;;29.59;48.64;97656.69;2087918;28;20071;-50
2023/07/26 03:21:40;;;;;;;2.03;1.80;;;;;;;29.59;48.62;97654.75;2081512;28;20348;-48
2023/07/26 03:22:41;;;;;;;2.47;1.42;;;;;;;29.56;48.67;97660.81;2080763;28;20053;-48
2023/07/26 03:23:43;;;;;;;3.22;1.10;;;;;;;29.54;48.56;97656.75;2087659;28;20044;-48
2023/07/26 03:24:45;;;;;;;2.13;0.80;;;;;;;29.59;48.31;97653.94;2087179;28;20064;-48
2023/07/26 03:25:47;;;;;;;2.05;0.75;;;;;;;29.57;48.45;97651.50;2082323;28;20053;-48
2023/07/26 03:26:48;;;;;;;1.80;1.23;;;;;;;29.58;48.65;97658.56;2083581;28;20349;-48
2023/07/26 03:27:50;;;;;;;2.30;1.20;;;;;;;29.61;48.57;97654.44;2071369;28;20148;-48
2023/07/26 03:28:51;;;;;;;1.60;0.85;;;;;;;29.58;48.51;97661.31;2077940;28;20053;-49
2023/07/26 03:29:53;;;;;;;3.72;1.58;;;;;;;29.54;48.54;97643.91;2081591;28;20064;-49
2023/07/26 03:30:53;;;;;;;3.88;1.05;;;;;;;29.56;48.59;97647.16;2086396;28;20557;-50
2023/07/26 03:31:55;;;;;;;1.92;1.50;;;;;;;29.56;48.63;97652.63;2087098;28;20264;-49
2023/07/26 03:32:56;;;;;;;2.92;0.82;;;;;;;29.57;48.65;97646.03;2087626;28;20052;-49
2023/07/26 03:33:58;;;;;;;2.63;0.90;;;;;;;29.59;48.77;97649.28;2088891;28;20179;-49
2023/07/26 03:34:59;;;;;;;2.55;0.88;;;;;;;29.59;48.64;97652.00;2089049;28;20052;-51
2023/07/26 03:36:01;;;;;;;2.75;1.02;;;;;;;29.59;48.48;97645.75;2090321;28;20136;-50
2023/07/26 03:37:03;;;;;;;2.95;0.95;;;;;;;29.57;48.61;97642.50;2088647;28;20961;-48
2023/07/26 03:38:04;;;;;;;2.83;1.20;;;;;;;29.56;48.37;97638.94;2089657;28;20090;-50
2023/07/26 03:39:05;;;;;;;2.33;1.10;;;;;;;29.56;48.32;97641.69;2089937;28;20067;-47
2023/07/26 03:40:10;;;;;;;3.25;1.42;;;;;;;29.54;48.76;97652.09;2081436;28;20519;-49
2023/07/26 03:41:11;;;;;;;3.13;0.85;;;;;;;29.55;48.72;97645.50;2078628;28;20045;-51
2023/07/26 03:42:12;;;;;;;2.83;1.13;;;;;;;29.52;48.79;97651.56;2081039;28;20060;-47
2023/07/26 03:43:14;;;;;;;2.95;1.17;;;;;;;29.53;48.59;97655.94;2081864;28;20046;-48
2023/07/26 03:44:15;;;;;;;2.38;1.33;;;;;;;29.50;48.76;97642.88;2080754;28;20042;-49
2023/07/26 03:45:16;;;;;;;2.40;1.20;;;;;;;29.54;48.54;97652.09;2081652;28;20051;-47
2023/07/26 03:46:18;;;;;;;4.32;1.35;;;;;;;29.55;48.55;97650.16;2091519;28;20041;-48
2023/07/26 03:47:19;;;;;;;1.48;0.80;;;;;;;29.54;48.55;97654.81;2090473;28;20133;-49
2023/07/26 03:48:21;;;;;;;3.72;0.88;;;;;;;29.55;48.76;97656.44;2090266;28;20098;-50
2023/07/26 03:49:22;;;;;;;2.85;1.00;;;;;;;29.56;48.15;97655.34;2078861;28;20052;-49
2023/07/26 03:50:23;;;;;;;2.47;1.00;;;;;;;29.54;48.51;97652.09;2078441;28;20474;-49
2023/07/26 03:51:24;;;;;;;3.38;0.80;;;;;;;29.55;48.48;97652.91;2082168;28;20048;-50
2023/07/26 03:52:26;;;;;;;1.85;1.05;;;;;;;29.58;48.77;97650.38;2082358;28;20056;-49
2023/07/26 03:53:27;;;;;;;3.08;1.10;;;;;;;29.56;48.69;97651.78;2079161;28;20407;-48
2023/07/26 03:54:28;;;;;;;2.10;0.95;;;;;;;29.55;48.57;97652.91;2081844;28;20052;-50
2023/07/26 03:55:31;;;;;;;1.48;1.38;;;;;;;29.54;48.59;97649.38;2080880;28;20110;-47
2023/07/26 03:56:32;;;;;;;3.22;1.50;;;;;;;29.54;48.54;97657.56;2081501;28;20594;-50
2023/07/26 03:57:33;;;;;;;1.55;0.85;;;;;;;29.53;48.40;97655.13;2081443;28;20060;-47
2023/07/26 03:58:35;;;;;;;1.60;1.00;;;;;;;29.53;48.84;97664.16;2080269;28;20083;-47
2023/07/26 03:59:36;;;;;;;2.53;1.35;;;;;;;29.50;48.54;97661.19;2080315;28;20048;-47
2023/07/26 04:00:36;;;;;;;2.03;1.13;;;;;;;29.50;48.65;97658.44;2081041;28;20041;-49
2023/07/26 04:01:38;;;;;;;1.70;0.70;;;;;;;29.52;48.43;97664.44;2081562;28;20041;-48
2023/07/26 04:02:39;;;;;;;2.42;1.42;;;;;;;29.53;48.53;97666.88;2083661;28;20074;-47
2023/07/26 04:03:41;;;;;;;1.90;0.77;;;;;;;29.51;48.83;97674.56;2081166;28;20276;-49
2023/07/26 04:04:42;;;;;;;4.45;1.25;;;;;;;29.51;48.77;97674.56;2082501;28;20041;-47
2023/07/26 04:05:44;;;;;;;2.63;1.17;;;;;;;29.52;48.45;97676.16;2091804;28;20131;-48
2023/07/26 04:06:44;;;;;;;2.00;1.02;;;;;;;29.53;48.47;97679.69;2089182;28;20414;-50
2023/07/26 04:07:46;;;;;;;2.97;1.38;;;;;;;29.53;48.64;97676.97;2086173;28;20132;-48
2023/07/26 04:08:47;;;;;;;2.78;1.17;;;;;;;29.50;48.72;97678.38;2089811;28;20052;-47
2023/07/26 04:09:49;;;;;;;3.00;1.00;;;;;;;29.51;48.63;97677.28;2091024;28;20044;-47
2023/07/26 04:10:51;;;;;;;1.65;0.85;;;;;;;29.51;48.61;97677.28;2090347;28;20048;-47
2023/07/26 04:11:55;;;;;;;2.20;1.23;;;;;;;29.51;48.68;97677.28;2088109;28;20052;-48
2023/07/26 04:12:56;;;;;;;2.80;0.73;;;;;;;29.50;48.57;97672.91;2086929;28;20381;-49
2023/07/26 04:13:58;;;;;;;1.77;0.90;;;;;;;29.51;48.65;97674.56;2083230;28;20063;-50
2023/07/26 04:14:59;;;;;;;2.20;0.85;;;;;;;29.54;48.56;97673.16;2082315;28;20045;-48
2023/07/26 04:16:01;;;;;;;2.10;1.02;;;;;;;29.54;48.56;97671.22;2082026;28;20057;-51
2023/07/26 04:17:02;;;;;;;2.63;1.60;;;;;;;29.54;48.47;97665.75;2089946;28;20036;-50
2023/07/26 04:18:04;;;;;;;1.65;0.73;;;;;;;29.50;48.46;97672.91;2088546;28;20502;-48
2023/07/26 04:19:05;;;;;;;2.00;1.00;;;;;;;29.52;48.54;97673.44;2090527;28;20915;-49
2023/07/26 04:20:08;;;;;;;3.78;1.13;;;;;;;29.52;48.68;97678.91;2091369;28;20103;-49
2023/07/26 04:21:12;;;;;;;4.80;1.10;;;;;;;29.51;48.32;97671.03;2088515;28;20541;-49
2023/07/26 04:22:14;;;;;;;2.10;0.80;;;;;;;29.50;48.65;97681.09;2090713;28;20033;-49
2023/07/26 04:23:14;;;;;;;2.38;0.80;;;;;;;29.50;48.57;97672.91;2088860;28;20049;-49
2023/07/26 04:24:16;;;;;;;1.35;0.68;;;;;;;29.51;48.62;97680.03;2090875;28;20059;-58
2023/07/26 04:25:17;;;;;;;2.42;1.00;;;;;;;29.49;48.52;97682.22;2090603;28;21772;-48
2023/07/26 04:26:20;;;;;;;1.48;0.60;;;;;;;29.52;48.48;97684.38;2091925;28;20108;-49
2023/07/26 04:27:21;;;;;;;2.60;1.13;;;;;;;29.48;48.53;97688.00;2089477;28;20106;-49
2023/07/26 04:28:23;;;;;;;2.92;1.20;;;;;;;29.50;48.53;97683.84;2092324;28;20544;-49
2023/07/26 04:29:24;;;;;;;2.67;1.10;;;;;;;29.50;48.38;97689.31;2087386;28;20252;-50
2023/07/26 04:30:26;;;;;;;2.42;0.98;;;;;;;29.50;48.77;97689.31;2090328;28;20506;-50
2023/07/26 04:31:26;;;;;;;3.10;0.98;;;;;;;29.50;48.50;97688.50;2091687;28;20049;-50
2023/07/26 04:32:28;;;;;;;1.65;1.08;;;;;;;29.48;48.67;97696.19;2091504;28;20112;-48
2023/07/26 04:33:29;;;;;;;0.95;0.93;;;;;;;29.47;48.50;97692.63;2080255;28;20064;-48
2023/07/26 04:34:31;;;;;;;1.38;0.93;;;;;;;29.48;48.64;97701.66;2089134;28;20310;-50
2023/07/26 04:35:32;;;;;;;1.23;0.80;;;;;;;29.47;48.52;97700.84;2088405;28;20300;-47
2023/07/26 04:36:34;;;;;;;3.08;1.30;;;;;;;29.49;48.45;97698.63;2090890;28;20569;-48
2023/07/26 04:37:35;;;;;;;2.47;1.00;;;;;;;29.49;48.57;97706.81;2093158;28;20044;-50
2023/07/26 04:38:37;;;;;;;5.32;1.25;;;;;;;29.47;48.53;97700.03;2089790;28;21128;-49
2023/07/26 04:39:37;;;;;;;1.08;0.80;;;;;;;29.47;48.81;97705.50;2090086;28;20045;-48
2023/07/26 04:40:38;;;;;;;2.00;1.10;;;;;;;29.49;48.51;97697.81;2090552;28;20075;-51
2023/07/26 04:41:41;;;;;;;1.63;1.10;;;;;;;29.48;48.38;97691.53;2087041;28;20127;-47
2023/07/26 04:42:42;;;;;;;1.67;1.10;;;;;;;29.47;48.78;97691.81;2090334;28;20428;-52
2023/07/26 04:43:44;;;;;;;2.08;1.17;;;;;;;29.49;48.63;97695.88;2090671;28;20045;-48
2023/07/26 04:44:45;;;;;;;2.17;1.13;;;;;;;29.47;48.66;97703.56;2090544;28;20184;-48
2023/07/26 04:45:47;;;;;;;2.60;1.38;;;;;;;29.48;48.53;97707.13;2090993;28;20405;-48
2023/07/26 04:46:48;;;;;;;2.20;1.55;;;;;;;29.48;48.37;97707.94;2089571;28;20049;-50
2023/07/26 04:47:50;;;;;;;3.20;1.27;;;;;;;29.48;48.59;97713.41;2086994;28;20270;-50
2023/07/26 04:48:51;;;;;;;2.10;0.68;;;;;;;29.47;48.39;97710.94;2088752;28;20464;-49
2023/07/26 04:49:52;;;;;;;2.33;0.98;;;;;;;29.47;48.56;97710.94;2088627;28;20098;-49
2023/07/26 04:50:54;;;;;;;3.92;1.23;;;;;;;29.45;48.39;97707.69;2090770;28;20048;-47